sensor_id;sensor_type;location;lat;lon;timestamp;temperature;humidity
1411;DHT22;700;51.906;8.404;2023-04-01T00:04:51;11.40;99.90
1411;DHT22;700;51.906;8.404;2023-04-01T00:09:53;11.40;99.90
1411;DHT22;700;51.906;8.404;2023-04-01T00:14:53;11.40;99.90
1411;DHT22;700;51.906;8.404;2023-04-01T00:19:59;11.40;99.90
1411;DHT22;700;51.906;8.404;2023-04-01T00:25:05;11.50;99.90
1411;DHT22;700;51.906;8.404;2023-04-01T00:30:09;11.60;99.90
1411;DHT22;700;51.906;8.404;2023-04-01T00:35:10;11.50;99.90
1411;DHT22;700;51.906;8.404;2023-04-01T00:40:27;11.40;99.90
1411;DHT22;700;51.906;8.404;2023-04-01T00:45:39;11.30;99.90
1411;DHT22;700;51.906;8.404;2023-04-01T00:50:50;11.30;99.90
1411;DHT22;700;51.906;8.404;2023-04-01T00:56:03;11.40;99.90
1411;DHT22;700;51.906;8.404;2023-04-01T01:01:05;11.40;99.90
1411;DHT22;700;51.906;8.404;2023-04-01T01:11:14;11.40;99.90
1411;DHT22;700;51.906;8.404;2023-04-01T01:16:29;11.20;99.90
1411;DHT22;700;51.906;8.404;2023-04-01T01:22:17;11.30;99.90
1411;DHT22;700;51.906;8.404;2023-04-01T01:27:29;11.20;99.90
1411;DHT22;700;51.906;8.404;2023-04-01T01:38:10;11.10;99.90
1411;DHT22;700;51.906;8.404;2023-04-01T01:43:14;11.20;99.90
1411;DHT22;700;51.906;8.404;2023-04-01T01:48:20;11.10;99.90
1411;DHT22;700;51.906;8.404;2023-04-01T01:53:22;11.20;99.90
1411;DHT22;700;51.906;8.404;2023-04-01T01:58:30;11.10;99.90
1411;DHT22;700;51.906;8.404;2023-04-01T02:03:35;11.10;99.90
1411;DHT22;700;51.906;8.404;2023-04-01T02:08:47;11.00;99.90
1411;DHT22;700;51.906;8.404;2023-04-01T02:13:51;11.00;99.90
1411;DHT22;700;51.906;8.404;2023-04-01T02:18:56;11.10;99.90
1411;DHT22;700;51.906;8.404;2023-04-01T02:24:00;11.00;99.90
1411;DHT22;700;51.906;8.404;2023-04-01T02:29:03;11.10;99.90
1411;DHT22;700;51.906;8.404;2023-04-01T02:34:05;11.30;99.90
1411;DHT22;700;51.906;8.404;2023-04-01T02:39:08;11.50;99.90
1411;DHT22;700;51.906;8.404;2023-04-01T02:44:10;11.20;99.90
1411;DHT22;700;51.906;8.404;2023-04-01T02:49:13;11.30;99.90
1411;DHT22;700;51.906;8.404;2023-04-01T02:54:16;11.20;99.90
1411;DHT22;700;51.906;8.404;2023-04-01T02:59:17;11.30;99.90
1411;DHT22;700;51.906;8.404;2023-04-01T03:04:18;11.50;99.90
1411;DHT22;700;51.906;8.404;2023-04-01T03:09:19;11.30;99.90
1411;DHT22;700;51.906;8.404;2023-04-01T03:14:20;11.40;99.90
1411;DHT22;700;51.906;8.404;2023-04-01T03:19:23;11.20;99.90
1411;DHT22;700;51.906;8.404;2023-04-01T03:24:23;11.20;99.90
1411;DHT22;700;51.906;8.404;2023-04-01T03:29:24;11.10;99.90
1411;DHT22;700;51.906;8.404;2023-04-01T03:34:27;11.10;99.90
1411;DHT22;700;51.906;8.404;2023-04-01T03:39:28;11.10;99.90
1411;DHT22;700;51.906;8.404;2023-04-01T03:44:32;11.20;99.90
1411;DHT22;700;51.906;8.404;2023-04-01T03:49:35;11.10;99.90
1411;DHT22;700;51.906;8.404;2023-04-01T03:54:36;11.20;99.90
1411;DHT22;700;51.906;8.404;2023-04-01T03:59:37;11.10;99.90
1411;DHT22;700;51.906;8.404;2023-04-01T04:04:40;11.00;99.90
1411;DHT22;700;51.906;8.404;2023-04-01T04:09:43;11.10;99.90
1411;DHT22;700;51.906;8.404;2023-04-01T04:14:44;11.10;99.90
1411;DHT22;700;51.906;8.404;2023-04-01T04:19:47;11.10;99.90
1411;DHT22;700;51.906;8.404;2023-04-01T04:24:50;10.90;99.90
1411;DHT22;700;51.906;8.404;2023-04-01T04:29:51;11.10;99.90
1411;DHT22;700;51.906;8.404;2023-04-01T04:34:54;10.90;99.90
1411;DHT22;700;51.906;8.404;2023-04-01T04:39:58;10.70;99.90
1411;DHT22;700;51.906;8.404;2023-04-01T04:44:58;10.80;99.90
1411;DHT22;700;51.906;8.404;2023-04-01T04:49:59;10.90;99.90
1411;DHT22;700;51.906;8.404;2023-04-01T04:54:59;10.90;99.90
1411;DHT22;700;51.906;8.404;2023-04-01T05:00:03;10.80;99.90
1411;DHT22;700;51.906;8.404;2023-04-01T05:05:05;10.80;99.90
1411;DHT22;700;51.906;8.404;2023-04-01T05:10:09;10.70;99.90
1411;DHT22;700;51.906;8.404;2023-04-01T05:15:10;10.80;99.90
1411;DHT22;700;51.906;8.404;2023-04-01T05:20:14;10.80;99.90
1411;DHT22;700;51.906;8.404;2023-04-01T05:25:18;10.90;99.90
1411;DHT22;700;51.906;8.404;2023-04-01T05:30:19;10.80;99.90
1411;DHT22;700;51.906;8.404;2023-04-01T05:35:20;10.60;99.90
1411;DHT22;700;51.906;8.404;2023-04-01T05:40:21;10.70;99.90
1411;DHT22;700;51.906;8.404;2023-04-01T05:45:21;10.70;99.90
1411;DHT22;700;51.906;8.404;2023-04-01T05:50:22;10.90;99.90
1411;DHT22;700;51.906;8.404;2023-04-01T05:55:25;10.90;99.90
1411;DHT22;700;51.906;8.404;2023-04-01T06:00:28;11.00;99.90
1411;DHT22;700;51.906;8.404;2023-04-01T06:05:42;11.20;99.90
1411;DHT22;700;51.906;8.404;2023-04-01T06:11:12;11.00;99.90
1411;DHT22;700;51.906;8.404;2023-04-01T06:16:33;10.90;99.90
1411;DHT22;700;51.906;8.404;2023-04-01T06:22:03;11.40;99.90
1411;DHT22;700;51.906;8.404;2023-04-01T06:27:46;11.50;99.90
1411;DHT22;700;51.906;8.404;2023-04-01T06:48:32;11.10;99.90
1411;DHT22;700;51.906;8.404;2023-04-01T06:58:42;11.60;99.90
1411;DHT22;700;51.906;8.404;2023-04-01T07:03:55;11.80;99.90
1411;DHT22;700;51.906;8.404;2023-04-01T07:09:02;12.00;99.90
1411;DHT22;700;51.906;8.404;2023-04-01T07:24:55;11.90;99.90
1411;DHT22;700;51.906;8.404;2023-04-01T07:29:58;12.00;99.90
1411;DHT22;700;51.906;8.404;2023-04-01T07:35:09;12.00;99.90
1411;DHT22;700;51.906;8.404;2023-04-01T08:07:21;12.20;99.90
1411;DHT22;700;51.906;8.404;2023-04-01T08:23:17;12.30;99.90
1411;DHT22;700;51.906;8.404;2023-04-01T08:28:32;12.40;99.90
1411;DHT22;700;51.906;8.404;2023-04-01T08:33:39;12.70;99.90
1411;DHT22;700;51.906;8.404;2023-04-01T08:38:43;13.00;99.90
1411;DHT22;700;51.906;8.404;2023-04-01T08:59:57;13.50;99.90
1411;DHT22;700;51.906;8.404;2023-04-01T09:21:31;13.20;99.90
1411;DHT22;700;51.906;8.404;2023-04-01T09:27:00;13.40;99.90
1411;DHT22;700;51.906;8.404;2023-04-01T09:37:47;13.50;99.90
1411;DHT22;700;51.906;8.404;2023-04-01T09:53:17;14.10;99.90
1411;DHT22;700;51.906;8.404;2023-04-01T10:36:56;14.30;99.90
1411;DHT22;700;51.906;8.404;2023-04-01T10:47:32;13.60;99.90
1411;DHT22;700;51.906;8.404;2023-04-01T11:14:32;13.50;99.90
1411;DHT22;700;51.906;8.404;2023-04-01T11:46:15;13.60;99.90
1411;DHT22;700;51.906;8.404;2023-04-01T12:12:49;14.40;99.90
1411;DHT22;700;51.906;8.404;2023-04-01T12:55:25;13.50;99.90
1411;DHT22;700;51.906;8.404;2023-04-01T13:01:01;13.50;99.90
1411;DHT22;700;51.906;8.404;2023-04-01T13:06:17;13.80;99.90
1411;DHT22;700;51.906;8.404;2023-04-01T13:22:39;14.10;99.90
1411;DHT22;700;51.906;8.404;2023-04-01T13:27:51;14.40;99.90
1411;DHT22;700;51.906;8.404;2023-04-01T13:33:01;14.50;99.90
1411;DHT22;700;51.906;8.404;2023-04-01T13:43:36;14.70;99.90
1411;DHT22;700;51.906;8.404;2023-04-01T13:54:25;14.60;99.90
1411;DHT22;700;51.906;8.404;2023-04-01T14:10:36;14.40;99.90
1411;DHT22;700;51.906;8.404;2023-04-01T14:53:30;14.90;99.90
1411;DHT22;700;51.906;8.404;2023-04-01T14:58:57;14.80;99.90
1411;DHT22;700;51.906;8.404;2023-04-01T15:09:44;14.20;99.90
1411;DHT22;700;51.906;8.404;2023-04-01T15:25:31;14.30;99.90
1411;DHT22;700;51.906;8.404;2023-04-01T15:41:43;14.10;99.90
1411;DHT22;700;51.906;8.404;2023-04-01T15:46:47;14.40;99.90
1411;DHT22;700;51.906;8.404;2023-04-01T15:51:56;14.60;99.90
1411;DHT22;700;51.906;8.404;2023-04-01T15:57:24;14.70;99.90
1411;DHT22;700;51.906;8.404;2023-04-01T16:02:51;15.10;99.90
1411;DHT22;700;51.906;8.404;2023-04-01T16:13:42;15.00;99.90
1411;DHT22;700;51.906;8.404;2023-04-01T16:24:43;14.40;99.90
1411;DHT22;700;51.906;8.404;2023-04-01T16:40:37;13.70;99.90
1411;DHT22;700;51.906;8.404;2023-04-01T16:51:16;14.00;99.90
1411;DHT22;700;51.906;8.404;2023-04-01T16:56:23;14.10;99.90
1411;DHT22;700;51.906;8.404;2023-04-01T17:01:28;14.40;99.90
1411;DHT22;700;51.906;8.404;2023-04-01T17:27:30;14.60;99.90
1411;DHT22;700;51.906;8.404;2023-04-01T17:32:40;14.40;99.90
1411;DHT22;700;51.906;8.404;2023-04-01T17:37:57;14.30;99.90
1411;DHT22;700;51.906;8.404;2023-04-01T17:54:11;14.20;99.90
1411;DHT22;700;51.906;8.404;2023-04-01T17:59:38;13.90;99.90
1411;DHT22;700;51.906;8.404;2023-04-01T18:10:24;13.60;99.90
1411;DHT22;700;51.906;8.404;2023-04-01T18:20:54;13.70;99.90
1411;DHT22;700;51.906;8.404;2023-04-01T18:26:13;13.70;99.90
1411;DHT22;700;51.906;8.404;2023-04-01T18:31:23;13.50;99.90
1411;DHT22;700;51.906;8.404;2023-04-01T18:36:43;13.50;99.90
1411;DHT22;700;51.906;8.404;2023-04-01T18:52:36;13.10;99.90
1411;DHT22;700;51.906;8.404;2023-04-01T19:08:40;12.90;99.90
1411;DHT22;700;51.906;8.404;2023-04-01T19:19:29;12.80;99.90
1411;DHT22;700;51.906;8.404;2023-04-01T19:30:50;12.80;99.90
1411;DHT22;700;51.906;8.404;2023-04-01T19:35:54;12.80;99.90
1411;DHT22;700;51.906;8.404;2023-04-01T19:46:32;12.50;99.90
1411;DHT22;700;51.906;8.404;2023-04-01T19:51:55;12.10;99.90
1411;DHT22;700;51.906;8.404;2023-04-01T20:02:49;12.20;99.90
1411;DHT22;700;51.906;8.404;2023-04-01T20:07:59;12.40;99.90
1411;DHT22;700;51.906;8.404;2023-04-01T20:13:20;12.20;99.90
1411;DHT22;700;51.906;8.404;2023-04-01T20:18:23;12.10;99.90
1411;DHT22;700;51.906;8.404;2023-04-01T20:23:59;12.00;99.90
1411;DHT22;700;51.906;8.404;2023-04-01T20:34:55;11.80;99.90
1411;DHT22;700;51.906;8.404;2023-04-01T20:55:57;11.50;99.90
1411;DHT22;700;51.906;8.404;2023-04-01T21:23:48;10.90;99.90
1411;DHT22;700;51.906;8.404;2023-04-01T21:28:59;10.90;99.90
1411;DHT22;700;51.906;8.404;2023-04-01T21:45:10;10.70;99.90
1411;DHT22;700;51.906;8.404;2023-04-01T22:01:38;10.70;99.90
1411;DHT22;700;51.906;8.404;2023-04-01T22:07:19;10.90;99.90
1411;DHT22;700;51.906;8.404;2023-04-01T22:12:38;10.50;99.90
1411;DHT22;700;51.906;8.404;2023-04-01T22:17:54;10.70;99.90
1411;DHT22;700;51.906;8.404;2023-04-01T22:23:13;10.50;99.90
1411;DHT22;700;51.906;8.404;2023-04-01T22:33:43;10.40;99.90
1411;DHT22;700;51.906;8.404;2023-04-01T22:38:58;10.20;99.90
1411;DHT22;700;51.906;8.404;2023-04-01T22:44:18;10.50;99.90
1411;DHT22;700;51.906;8.404;2023-04-01T22:49:32;10.40;99.90
1411;DHT22;700;51.906;8.404;2023-04-01T22:54:45;10.00;99.90
1411;DHT22;700;51.906;8.404;2023-04-01T22:59:54;10.20;99.90
1411;DHT22;700;51.906;8.404;2023-04-01T23:05:03;10.10;99.90
1411;DHT22;700;51.906;8.404;2023-04-01T23:10:14;10.10;99.90
1411;DHT22;700;51.906;8.404;2023-04-01T23:15:18;9.80;99.90
1411;DHT22;700;51.906;8.404;2023-04-01T23:30:52;10.10;99.90
1411;DHT22;700;51.906;8.404;2023-04-01T23:36:01;9.80;99.90
1411;DHT22;700;51.906;8.404;2023-04-01T23:41:06;9.80;99.90
1411;DHT22;700;51.906;8.404;2023-04-01T23:46:07;9.50;99.90
1411;DHT22;700;51.906;8.404;2023-04-01T23:51:26;9.70;99.90
1411;DHT22;700;51.906;8.404;2023-04-01T23:56:43;9.70;99.90
